sensor_id;sensor_type;location;lat;lon;timestamp;temperature;humidity
10986;DHT22;5546;48.714;8.738;2022-09-11T00:01:08;17.70;99.90
10986;DHT22;5546;48.714;8.738;2022-09-11T00:03:35;17.70;99.90
10986;DHT22;5546;48.714;8.738;2022-09-11T00:06:06;17.70;99.90
10986;DHT22;5546;48.714;8.738;2022-09-11T00:08:32;17.70;99.90
10986;DHT22;5546;48.714;8.738;2022-09-11T00:11:06;17.90;99.90
10986;DHT22;5546;48.714;8.738;2022-09-11T00:13:33;18.00;99.90
10986;DHT22;5546;48.714;8.738;2022-09-11T00:15:59;17.80;99.90
10986;DHT22;5546;48.714;8.738;2022-09-11T00:18:25;17.80;99.90
10986;DHT22;5546;48.714;8.738;2022-09-11T00:20:55;18.20;99.90
10986;DHT22;5546;48.714;8.738;2022-09-11T00:23:23;18.00;99.90
10986;DHT22;5546;48.714;8.738;2022-09-11T00:25:49;18.00;99.90
10986;DHT22;5546;48.714;8.738;2022-09-11T00:28:21;18.00;99.90
10986;DHT22;5546;48.714;8.738;2022-09-11T00:30:59;18.30;99.90
10986;DHT22;5546;48.714;8.738;2022-09-11T00:33:25;18.10;99.90
10986;DHT22;5546;48.714;8.738;2022-09-11T00:35:56;17.90;99.90
10986;DHT22;5546;48.714;8.738;2022-09-11T00:38:24;17.90;99.90
10986;DHT22;5546;48.714;8.738;2022-09-11T00:40:51;17.80;99.90
10986;DHT22;5546;48.714;8.738;2022-09-11T00:43:17;17.80;99.90
10986;DHT22;5546;48.714;8.738;2022-09-11T00:45:44;17.80;99.90
10986;DHT22;5546;48.714;8.738;2022-09-11T00:48:12;17.60;99.90
10986;DHT22;5546;48.714;8.738;2022-09-11T00:50:41;17.50;99.90
10986;DHT22;5546;48.714;8.738;2022-09-11T00:53:08;17.60;99.90
10986;DHT22;5546;48.714;8.738;2022-09-11T00:55:40;17.70;99.90
10986;DHT22;5546;48.714;8.738;2022-09-11T00:58:11;17.80;99.90
10986;DHT22;5546;48.714;8.738;2022-09-11T01:00:41;18.20;99.90
10986;DHT22;5546;48.714;8.738;2022-09-11T01:03:07;18.20;99.90
10986;DHT22;5546;48.714;8.738;2022-09-11T01:05:35;18.10;99.90
10986;DHT22;5546;48.714;8.738;2022-09-11T01:08:01;18.20;99.90
10986;DHT22;5546;48.714;8.738;2022-09-11T01:16:24;18.40;99.90
10986;DHT22;5546;48.714;8.738;2022-09-11T01:18:54;18.40;99.90
10986;DHT22;5546;48.714;8.738;2022-09-11T01:21:40;18.10;99.90
10986;DHT22;5546;48.714;8.738;2022-09-11T01:24:24;18.00;99.90
10986;DHT22;5546;48.714;8.738;2022-09-11T01:29:48;18.00;99.90
10986;DHT22;5546;48.714;8.738;2022-09-11T01:32:21;18.10;99.90
10986;DHT22;5546;48.714;8.738;2022-09-11T01:35:05;17.80;99.90
10986;DHT22;5546;48.714;8.738;2022-09-11T01:37:43;17.90;99.90
10986;DHT22;5546;48.714;8.738;2022-09-11T01:40:21;17.90;99.90
10986;DHT22;5546;48.714;8.738;2022-09-11T01:42:51;18.20;99.90
10986;DHT22;5546;48.714;8.738;2022-09-11T01:45:18;18.30;99.90
10986;DHT22;5546;48.714;8.738;2022-09-11T01:47:46;18.30;99.90
10986;DHT22;5546;48.714;8.738;2022-09-11T01:50:14;18.40;99.90
10986;DHT22;5546;48.714;8.738;2022-09-11T01:53:09;18.50;99.90
10986;DHT22;5546;48.714;8.738;2022-09-11T01:55:40;18.30;99.90
10986;DHT22;5546;48.714;8.738;2022-09-11T01:58:09;18.30;99.90
10986;DHT22;5546;48.714;8.738;2022-09-11T02:00:37;18.20;99.90
10986;DHT22;5546;48.714;8.738;2022-09-11T02:03:12;18.20;99.90
10986;DHT22;5546;48.714;8.738;2022-09-11T02:05:53;18.20;99.90
10986;DHT22;5546;48.714;8.738;2022-09-11T02:08:37;18.30;99.90
10986;DHT22;5546;48.714;8.738;2022-09-11T02:11:08;18.00;99.90
10986;DHT22;5546;48.714;8.738;2022-09-11T02:16:30;18.10;99.90
10986;DHT22;5546;48.714;8.738;2022-09-11T02:19:11;18.00;99.90
10986;DHT22;5546;48.714;8.738;2022-09-11T02:21:38;17.80;99.90
10986;DHT22;5546;48.714;8.738;2022-09-11T02:24:03;17.90;99.90
10986;DHT22;5546;48.714;8.738;2022-09-11T02:26:32;17.90;99.90
10986;DHT22;5546;48.714;8.738;2022-09-11T02:28:58;18.00;99.90
10986;DHT22;5546;48.714;8.738;2022-09-11T02:31:24;18.00;99.90
10986;DHT22;5546;48.714;8.738;2022-09-11T02:33:50;18.30;99.90
10986;DHT22;5546;48.714;8.738;2022-09-11T02:39:12;17.90;99.90
10986;DHT22;5546;48.714;8.738;2022-09-11T02:44:47;18.10;99.90
10986;DHT22;5546;48.714;8.738;2022-09-11T02:47:35;18.20;99.90
10986;DHT22;5546;48.714;8.738;2022-09-11T03:01:16;18.10;99.90
10986;DHT22;5546;48.714;8.738;2022-09-11T03:03:44;18.20;99.90
10986;DHT22;5546;48.714;8.738;2022-09-11T03:06:14;18.20;99.90
10986;DHT22;5546;48.714;8.738;2022-09-11T03:08:41;18.00;99.90
10986;DHT22;5546;48.714;8.738;2022-09-11T03:11:06;18.10;99.90
10986;DHT22;5546;48.714;8.738;2022-09-11T03:13:33;18.10;99.90
10986;DHT22;5546;48.714;8.738;2022-09-11T03:16:00;18.20;99.90
10986;DHT22;5546;48.714;8.738;2022-09-11T03:18:26;18.20;99.90
10986;DHT22;5546;48.714;8.738;2022-09-11T03:20:51;18.20;99.90
10986;DHT22;5546;48.714;8.738;2022-09-11T03:23:17;18.40;99.90
10986;DHT22;5546;48.714;8.738;2022-09-11T03:25:42;18.30;99.90
10986;DHT22;5546;48.714;8.738;2022-09-11T03:28:08;18.50;99.90
10986;DHT22;5546;48.714;8.738;2022-09-11T03:30:33;18.40;99.90
10986;DHT22;5546;48.714;8.738;2022-09-11T03:32:59;18.50;99.90
10986;DHT22;5546;48.714;8.738;2022-09-11T03:35:25;18.50;99.90
10986;DHT22;5546;48.714;8.738;2022-09-11T03:37:52;18.40;99.90
10986;DHT22;5546;48.714;8.738;2022-09-11T03:40:18;18.20;99.90
10986;DHT22;5546;48.714;8.738;2022-09-11T03:42:44;18.40;99.90
10986;DHT22;5546;48.714;8.738;2022-09-11T03:45:10;18.40;99.90
10986;DHT22;5546;48.714;8.738;2022-09-11T03:47:36;18.40;99.90
10986;DHT22;5546;48.714;8.738;2022-09-11T03:50:02;18.40;99.90
10986;DHT22;5546;48.714;8.738;2022-09-11T03:52:28;18.50;99.90
10986;DHT22;5546;48.714;8.738;2022-09-11T03:54:54;18.60;99.90
10986;DHT22;5546;48.714;8.738;2022-09-11T03:57:20;18.50;99.90
10986;DHT22;5546;48.714;8.738;2022-09-11T03:59:45;18.40;99.90
10986;DHT22;5546;48.714;8.738;2022-09-11T04:02:11;18.40;99.90
10986;DHT22;5546;48.714;8.738;2022-09-11T04:04:36;18.30;99.90
10986;DHT22;5546;48.714;8.738;2022-09-11T04:07:02;18.30;99.90
10986;DHT22;5546;48.714;8.738;2022-09-11T04:09:27;18.60;99.90
10986;DHT22;5546;48.714;8.738;2022-09-11T04:11:53;18.50;99.90
10986;DHT22;5546;48.714;8.738;2022-09-11T04:14:19;18.70;99.90
10986;DHT22;5546;48.714;8.738;2022-09-11T04:16:46;18.60;99.90
10986;DHT22;5546;48.714;8.738;2022-09-11T04:19:12;18.60;99.90
10986;DHT22;5546;48.714;8.738;2022-09-11T04:21:39;18.50;99.90
10986;DHT22;5546;48.714;8.738;2022-09-11T04:24:05;18.20;99.90
10986;DHT22;5546;48.714;8.738;2022-09-11T04:26:31;18.20;99.90
10986;DHT22;5546;48.714;8.738;2022-09-11T04:28:58;18.10;99.90
10986;DHT22;5546;48.714;8.738;2022-09-11T04:31:25;18.20;99.90
10986;DHT22;5546;48.714;8.738;2022-09-11T04:33:52;18.40;99.90
10986;DHT22;5546;48.714;8.738;2022-09-11T04:36:19;18.30;99.90
10986;DHT22;5546;48.714;8.738;2022-09-11T04:38:46;18.20;99.90
10986;DHT22;5546;48.714;8.738;2022-09-11T04:41:13;18.10;99.90
10986;DHT22;5546;48.714;8.738;2022-09-11T04:43:40;18.10;99.90
10986;DHT22;5546;48.714;8.738;2022-09-11T04:46:08;18.10;99.90
10986;DHT22;5546;48.714;8.738;2022-09-11T04:48:34;18.10;99.90
10986;DHT22;5546;48.714;8.738;2022-09-11T04:51:05;18.30;99.90
10986;DHT22;5546;48.714;8.738;2022-09-11T04:53:31;18.40;99.90
10986;DHT22;5546;48.714;8.738;2022-09-11T04:56:10;18.20;99.90
10986;DHT22;5546;48.714;8.738;2022-09-11T04:58:40;18.20;99.90
10986;DHT22;5546;48.714;8.738;2022-09-11T05:01:11;17.80;99.90
10986;DHT22;5546;48.714;8.738;2022-09-11T05:03:38;18.00;99.90
10986;DHT22;5546;48.714;8.738;2022-09-11T05:06:07;18.00;99.90
10986;DHT22;5546;48.714;8.738;2022-09-11T05:08:34;17.70;99.90
10986;DHT22;5546;48.714;8.738;2022-09-11T05:11:01;17.80;99.90
10986;DHT22;5546;48.714;8.738;2022-09-11T05:13:27;17.70;99.90
10986;DHT22;5546;48.714;8.738;2022-09-11T05:16:00;17.70;99.90
10986;DHT22;5546;48.714;8.738;2022-09-11T05:18:26;17.50;99.90
10986;DHT22;5546;48.714;8.738;2022-09-11T05:21:03;17.50;99.90
10986;DHT22;5546;48.714;8.738;2022-09-11T05:23:29;17.80;99.90
10986;DHT22;5546;48.714;8.738;2022-09-11T05:26:03;18.00;99.90
10986;DHT22;5546;48.714;8.738;2022-09-11T05:28:30;18.10;99.90
10986;DHT22;5546;48.714;8.738;2022-09-11T05:30:56;17.70;99.90
10986;DHT22;5546;48.714;8.738;2022-09-11T05:33:23;17.70;99.90
10986;DHT22;5546;48.714;8.738;2022-09-11T05:35:54;18.00;99.90
10986;DHT22;5546;48.714;8.738;2022-09-11T05:38:20;17.90;99.90
10986;DHT22;5546;48.714;8.738;2022-09-11T05:40:49;18.20;99.90
10986;DHT22;5546;48.714;8.738;2022-09-11T05:43:17;18.20;99.90
10986;DHT22;5546;48.714;8.738;2022-09-11T05:45:52;18.30;99.90
10986;DHT22;5546;48.714;8.738;2022-09-11T05:48:17;18.30;99.90
10986;DHT22;5546;48.714;8.738;2022-09-11T05:50:54;18.40;99.90
10986;DHT22;5546;48.714;8.738;2022-09-11T05:53:20;18.40;99.90
10986;DHT22;5546;48.714;8.738;2022-09-11T05:55:46;18.50;99.90
10986;DHT22;5546;48.714;8.738;2022-09-11T05:58:12;18.20;99.90
10986;DHT22;5546;48.714;8.738;2022-09-11T06:03:05;18.50;99.90
10986;DHT22;5546;48.714;8.738;2022-09-11T06:05:32;18.60;99.90
10986;DHT22;5546;48.714;8.738;2022-09-11T06:07:58;18.60;99.90
10986;DHT22;5546;48.714;8.738;2022-09-11T06:10:25;18.80;99.90
10986;DHT22;5546;48.714;8.738;2022-09-11T06:12:51;18.80;99.90
10986;DHT22;5546;48.714;8.738;2022-09-11T06:15:16;18.70;99.90
10986;DHT22;5546;48.714;8.738;2022-09-11T06:17:42;18.70;99.90
10986;DHT22;5546;48.714;8.738;2022-09-11T06:20:08;18.70;99.90
10986;DHT22;5546;48.714;8.738;2022-09-11T06:22:37;18.70;99.90
10986;DHT22;5546;48.714;8.738;2022-09-11T06:25:03;18.80;99.90
10986;DHT22;5546;48.714;8.738;2022-09-11T06:27:29;18.90;99.90
10986;DHT22;5546;48.714;8.738;2022-09-11T06:29:54;18.90;99.90
10986;DHT22;5546;48.714;8.738;2022-09-11T06:32:20;18.60;99.90
10986;DHT22;5546;48.714;8.738;2022-09-11T06:34:46;18.60;99.90
10986;DHT22;5546;48.714;8.738;2022-09-11T06:37:12;18.60;99.90
10986;DHT22;5546;48.714;8.738;2022-09-11T06:39:38;18.80;99.90
10986;DHT22;5546;48.714;8.738;2022-09-11T06:42:04;19.00;99.90
10986;DHT22;5546;48.714;8.738;2022-09-11T06:44:31;19.10;99.90
10986;DHT22;5546;48.714;8.738;2022-09-11T06:46:57;19.40;99.90
10986;DHT22;5546;48.714;8.738;2022-09-11T06:49:23;19.70;99.90
10986;DHT22;5546;48.714;8.738;2022-09-11T06:51:49;19.70;99.90
10986;DHT22;5546;48.714;8.738;2022-09-11T06:54:16;19.90;99.90
10986;DHT22;5546;48.714;8.738;2022-09-11T06:56:42;19.70;99.50
10986;DHT22;5546;48.714;8.738;2022-09-11T06:59:07;19.20;99.90
10986;DHT22;5546;48.714;8.738;2022-09-11T07:01:33;18.90;99.90
10986;DHT22;5546;48.714;8.738;2022-09-11T07:03:58;19.00;99.90
10986;DHT22;5546;48.714;8.738;2022-09-11T07:06:26;19.00;99.90
10986;DHT22;5546;48.714;8.738;2022-09-11T07:08:53;19.00;99.90
10986;DHT22;5546;48.714;8.738;2022-09-11T07:11:21;19.50;99.90
10986;DHT22;5546;48.714;8.738;2022-09-11T07:13:47;19.40;99.90
10986;DHT22;5546;48.714;8.738;2022-09-11T07:16:12;19.90;99.30
10986;DHT22;5546;48.714;8.738;2022-09-11T07:18:40;20.00;99.60
10986;DHT22;5546;48.714;8.738;2022-09-11T07:21:08;20.90;97.70
10986;DHT22;5546;48.714;8.738;2022-09-11T07:23:35;21.30;96.70
10986;DHT22;5546;48.714;8.738;2022-09-11T07:26:09;21.60;96.20
10986;DHT22;5546;48.714;8.738;2022-09-11T07:28:35;21.70;96.60
10986;DHT22;5546;48.714;8.738;2022-09-11T07:31:08;22.00;96.50
10986;DHT22;5546;48.714;8.738;2022-09-11T07:33:41;22.80;93.80
10986;DHT22;5546;48.714;8.738;2022-09-11T07:36:11;22.90;94.10
10986;DHT22;5546;48.714;8.738;2022-09-11T07:38:44;22.90;94.30
10986;DHT22;5546;48.714;8.738;2022-09-11T07:41:12;22.80;94.30
10986;DHT22;5546;48.714;8.738;2022-09-11T07:43:39;22.20;95.40
10986;DHT22;5546;48.714;8.738;2022-09-11T07:46:06;22.60;95.30
10986;DHT22;5546;48.714;8.738;2022-09-11T07:48:34;23.30;93.80
10986;DHT22;5546;48.714;8.738;2022-09-11T07:51:06;24.00;92.50
10986;DHT22;5546;48.714;8.738;2022-09-11T07:53:43;24.20;90.40
10986;DHT22;5546;48.714;8.738;2022-09-11T07:56:12;24.30;91.70
10986;DHT22;5546;48.714;8.738;2022-09-11T07:58:40;24.50;90.50
10986;DHT22;5546;48.714;8.738;2022-09-11T08:01:07;24.50;90.60
10986;DHT22;5546;48.714;8.738;2022-09-11T08:03:34;25.10;87.30
10986;DHT22;5546;48.714;8.738;2022-09-11T08:06:02;25.00;88.00
10986;DHT22;5546;48.714;8.738;2022-09-11T08:08:29;24.40;88.30
10986;DHT22;5546;48.714;8.738;2022-09-11T08:11:02;24.30;91.40
10986;DHT22;5546;48.714;8.738;2022-09-11T08:13:28;24.30;90.50
10986;DHT22;5546;48.714;8.738;2022-09-11T08:15:54;23.90;90.90
10986;DHT22;5546;48.714;8.738;2022-09-11T08:18:21;23.50;90.40
10986;DHT22;5546;48.714;8.738;2022-09-11T08:20:47;24.70;89.10
10986;DHT22;5546;48.714;8.738;2022-09-11T08:23:13;24.70;89.60
10986;DHT22;5546;48.714;8.738;2022-09-11T08:25:40;25.70;85.70
10986;DHT22;5546;48.714;8.738;2022-09-11T08:28:06;27.60;80.70
10986;DHT22;5546;48.714;8.738;2022-09-11T08:30:32;29.00;75.90
10986;DHT22;5546;48.714;8.738;2022-09-11T08:32:58;30.60;72.40
10986;DHT22;5546;48.714;8.738;2022-09-11T08:35:24;31.70;66.60
10986;DHT22;5546;48.714;8.738;2022-09-11T08:37:51;32.30;62.80
10986;DHT22;5546;48.714;8.738;2022-09-11T08:40:17;32.30;61.10
10986;DHT22;5546;48.714;8.738;2022-09-11T08:42:44;32.60;61.60
10986;DHT22;5546;48.714;8.738;2022-09-11T08:45:16;32.60;59.30
10986;DHT22;5546;48.714;8.738;2022-09-11T08:47:52;33.60;57.70
10986;DHT22;5546;48.714;8.738;2022-09-11T08:50:36;33.90;57.00
10986;DHT22;5546;48.714;8.738;2022-09-11T08:53:04;33.40;55.80
10986;DHT22;5546;48.714;8.738;2022-09-11T08:55:36;29.40;59.50
10986;DHT22;5546;48.714;8.738;2022-09-11T08:58:34;29.10;62.90
10986;DHT22;5546;48.714;8.738;2022-09-11T09:01:17;29.20;63.20
10986;DHT22;5546;48.714;8.738;2022-09-11T09:12:10;26.90;64.90
10986;DHT22;5546;48.714;8.738;2022-09-11T09:15:16;26.20;69.30
10986;DHT22;5546;48.714;8.738;2022-09-11T09:18:04;25.60;70.10
10986;DHT22;5546;48.714;8.738;2022-09-11T09:20:35;25.10;74.80
10986;DHT22;5546;48.714;8.738;2022-09-11T09:23:03;24.80;72.70
10986;DHT22;5546;48.714;8.738;2022-09-11T09:25:35;24.70;77.20
10986;DHT22;5546;48.714;8.738;2022-09-11T09:30:29;25.00;80.90
10986;DHT22;5546;48.714;8.738;2022-09-11T09:33:22;25.40;76.40
10986;DHT22;5546;48.714;8.738;2022-09-11T09:35:52;25.80;76.30
10986;DHT22;5546;48.714;8.738;2022-09-11T09:38:26;24.80;76.80
10986;DHT22;5546;48.714;8.738;2022-09-11T09:46:34;24.10;76.90
10986;DHT22;5546;48.714;8.738;2022-09-11T09:49:02;24.60;76.30
10986;DHT22;5546;48.714;8.738;2022-09-11T09:51:27;25.80;73.00
10986;DHT22;5546;48.714;8.738;2022-09-11T09:53:59;27.20;69.40
10986;DHT22;5546;48.714;8.738;2022-09-11T09:56:27;27.80;67.00
10986;DHT22;5546;48.714;8.738;2022-09-11T09:59:13;28.80;64.00
10986;DHT22;5546;48.714;8.738;2022-09-11T10:04:24;31.00;58.30
10986;DHT22;5546;48.714;8.738;2022-09-11T10:07:08;29.00;60.10
10986;DHT22;5546;48.714;8.738;2022-09-11T10:09:35;28.10;63.40
10986;DHT22;5546;48.714;8.738;2022-09-11T10:12:19;29.20;61.20
10986;DHT22;5546;48.714;8.738;2022-09-11T10:14:59;30.30;60.40
10986;DHT22;5546;48.714;8.738;2022-09-11T10:19:54;32.10;58.00
10986;DHT22;5546;48.714;8.738;2022-09-11T10:25:08;33.60;52.30
10986;DHT22;5546;48.714;8.738;2022-09-11T10:27:44;33.20;50.70
10986;DHT22;5546;48.714;8.738;2022-09-11T10:30:32;33.50;51.50
10986;DHT22;5546;48.714;8.738;2022-09-11T10:33:00;33.20;50.90
10986;DHT22;5546;48.714;8.738;2022-09-11T10:35:28;33.20;51.30
10986;DHT22;5546;48.714;8.738;2022-09-11T10:38:15;33.90;48.30
10986;DHT22;5546;48.714;8.738;2022-09-11T10:40:52;33.50;48.40
10986;DHT22;5546;48.714;8.738;2022-09-11T10:43:24;33.40;49.00
10986;DHT22;5546;48.714;8.738;2022-09-11T10:46:19;33.40;48.70
10986;DHT22;5546;48.714;8.738;2022-09-11T10:51:35;34.10;53.50
10986;DHT22;5546;48.714;8.738;2022-09-11T10:56:56;36.00;45.40
10986;DHT22;5546;48.714;8.738;2022-09-11T10:59:54;36.50;45.60
10986;DHT22;5546;48.714;8.738;2022-09-11T11:02:19;35.60;45.60
10986;DHT22;5546;48.714;8.738;2022-09-11T11:04:45;33.50;47.60
10986;DHT22;5546;48.714;8.738;2022-09-11T11:10:14;34.10;46.70
10986;DHT22;5546;48.714;8.738;2022-09-11T11:15:28;30.50;53.80
10986;DHT22;5546;48.714;8.738;2022-09-11T11:18:55;29.00;55.00
10986;DHT22;5546;48.714;8.738;2022-09-11T11:26:56;28.20;55.70
10986;DHT22;5546;48.714;8.738;2022-09-11T11:30:29;28.40;57.10
10986;DHT22;5546;48.714;8.738;2022-09-11T11:32:53;28.90;56.40
10986;DHT22;5546;48.714;8.738;2022-09-11T11:40:48;35.30;47.50
10986;DHT22;5546;48.714;8.738;2022-09-11T11:43:19;35.80;44.00
10986;DHT22;5546;48.714;8.738;2022-09-11T11:45:56;37.20;41.80
10986;DHT22;5546;48.714;8.738;2022-09-11T11:51:26;37.00;41.00
10986;DHT22;5546;48.714;8.738;2022-09-11T11:54:10;36.90;40.10
10986;DHT22;5546;48.714;8.738;2022-09-11T11:56:43;32.80;45.40
10986;DHT22;5546;48.714;8.738;2022-09-11T12:01:57;31.50;50.50
10986;DHT22;5546;48.714;8.738;2022-09-11T12:04:49;31.20;49.90
10986;DHT22;5546;48.714;8.738;2022-09-11T12:07:21;32.10;47.10
10986;DHT22;5546;48.714;8.738;2022-09-11T12:09:49;32.10;48.00
10986;DHT22;5546;48.714;8.738;2022-09-11T12:12:17;33.30;48.60
10986;DHT22;5546;48.714;8.738;2022-09-11T12:14:55;33.30;49.10
10986;DHT22;5546;48.714;8.738;2022-09-11T12:17:31;35.10;44.50
10986;DHT22;5546;48.714;8.738;2022-09-11T12:32:52;32.20;45.10
10986;DHT22;5546;48.714;8.738;2022-09-11T12:35:26;31.50;47.00
10986;DHT22;5546;48.714;8.738;2022-09-11T12:37:57;31.10;46.10
10986;DHT22;5546;48.714;8.738;2022-09-11T12:40:59;31.90;46.70
10986;DHT22;5546;48.714;8.738;2022-09-11T12:45:58;30.90;50.70
10986;DHT22;5546;48.714;8.738;2022-09-11T12:48:43;30.80;51.10
10986;DHT22;5546;48.714;8.738;2022-09-11T12:51:40;28.50;55.10
10986;DHT22;5546;48.714;8.738;2022-09-11T12:56:57;28.40;54.50
10986;DHT22;5546;48.714;8.738;2022-09-11T12:59:33;28.30;53.10
10986;DHT22;5546;48.714;8.738;2022-09-11T13:02:04;28.00;55.90
10986;DHT22;5546;48.714;8.738;2022-09-11T13:04:30;28.10;56.50
10986;DHT22;5546;48.714;8.738;2022-09-11T13:07:00;29.70;52.00
10986;DHT22;5546;48.714;8.738;2022-09-11T13:09:35;29.30;52.20
10986;DHT22;5546;48.714;8.738;2022-09-11T13:14:45;28.30;52.80
10986;DHT22;5546;48.714;8.738;2022-09-11T13:17:14;28.40;53.50
10986;DHT22;5546;48.714;8.738;2022-09-11T13:19:40;27.50;55.80
10986;DHT22;5546;48.714;8.738;2022-09-11T13:22:26;27.50;56.60
10986;DHT22;5546;48.714;8.738;2022-09-11T13:27:58;27.30;59.70
10986;DHT22;5546;48.714;8.738;2022-09-11T13:30:25;27.30;60.50
10986;DHT22;5546;48.714;8.738;2022-09-11T13:35:28;26.10;60.00
10986;DHT22;5546;48.714;8.738;2022-09-11T13:38:00;26.30;62.60
10986;DHT22;5546;48.714;8.738;2022-09-11T13:40:31;26.90;58.10
10986;DHT22;5546;48.714;8.738;2022-09-11T13:43:00;26.20;60.60
10986;DHT22;5546;48.714;8.738;2022-09-11T13:45:26;26.00;61.70
10986;DHT22;5546;48.714;8.738;2022-09-11T13:47:52;27.20;60.90
10986;DHT22;5546;48.714;8.738;2022-09-11T13:50:19;29.50;57.70
10986;DHT22;5546;48.714;8.738;2022-09-11T13:52:45;31.70;51.70
10986;DHT22;5546;48.714;8.738;2022-09-11T13:55:23;31.70;52.10
10986;DHT22;5546;48.714;8.738;2022-09-11T13:58:00;35.00;45.80
10986;DHT22;5546;48.714;8.738;2022-09-11T14:03:27;35.40;46.20
10986;DHT22;5546;48.714;8.738;2022-09-11T14:06:02;35.30;46.20
10986;DHT22;5546;48.714;8.738;2022-09-11T14:08:37;35.30;45.40
10986;DHT22;5546;48.714;8.738;2022-09-11T14:11:09;37.20;43.00
10986;DHT22;5546;48.714;8.738;2022-09-11T14:13:45;36.90;42.20
10986;DHT22;5546;48.714;8.738;2022-09-11T14:18:54;31.00;49.00
10986;DHT22;5546;48.714;8.738;2022-09-11T14:21:30;28.80;53.90
10986;DHT22;5546;48.714;8.738;2022-09-11T14:23:57;28.00;56.10
10986;DHT22;5546;48.714;8.738;2022-09-11T14:29:05;26.50;58.60
10986;DHT22;5546;48.714;8.738;2022-09-11T14:31:47;26.00;63.10
10986;DHT22;5546;48.714;8.738;2022-09-11T14:34:18;25.20;61.70
10986;DHT22;5546;48.714;8.738;2022-09-11T14:41:48;24.60;65.80
10986;DHT22;5546;48.714;8.738;2022-09-11T14:44:15;24.90;65.30
10986;DHT22;5546;48.714;8.738;2022-09-11T14:46:41;25.10;65.40
10986;DHT22;5546;48.714;8.738;2022-09-11T14:49:07;25.50;64.70
10986;DHT22;5546;48.714;8.738;2022-09-11T14:51:37;25.50;63.90
10986;DHT22;5546;48.714;8.738;2022-09-11T14:54:14;25.70;66.80
10986;DHT22;5546;48.714;8.738;2022-09-11T14:56:40;25.50;64.90
10986;DHT22;5546;48.714;8.738;2022-09-11T14:59:06;24.60;68.90
10986;DHT22;5546;48.714;8.738;2022-09-11T15:01:32;25.10;68.40
10986;DHT22;5546;48.714;8.738;2022-09-11T15:03:58;25.40;66.20
10986;DHT22;5546;48.714;8.738;2022-09-11T15:06:24;25.80;66.60
10986;DHT22;5546;48.714;8.738;2022-09-11T15:08:50;25.90;65.30
10986;DHT22;5546;48.714;8.738;2022-09-11T15:11:16;25.20;66.20
10986;DHT22;5546;48.714;8.738;2022-09-11T15:13:41;25.10;68.10
10986;DHT22;5546;48.714;8.738;2022-09-11T15:16:09;25.00;68.00
10986;DHT22;5546;48.714;8.738;2022-09-11T15:18:35;24.90;68.50
10986;DHT22;5546;48.714;8.738;2022-09-11T15:21:00;25.00;68.10
10986;DHT22;5546;48.714;8.738;2022-09-11T15:23:26;24.80;67.50
10986;DHT22;5546;48.714;8.738;2022-09-11T15:25:58;24.40;68.60
10986;DHT22;5546;48.714;8.738;2022-09-11T15:28:26;24.50;72.50
10986;DHT22;5546;48.714;8.738;2022-09-11T15:30:53;24.50;72.60
10986;DHT22;5546;48.714;8.738;2022-09-11T15:33:23;24.50;70.00
10986;DHT22;5546;48.714;8.738;2022-09-11T15:35:49;24.80;70.10
10986;DHT22;5546;48.714;8.738;2022-09-11T15:38:14;25.00;68.90
10986;DHT22;5546;48.714;8.738;2022-09-11T15:40:40;25.00;68.60
10986;DHT22;5546;48.714;8.738;2022-09-11T15:43:05;24.90;71.00
10986;DHT22;5546;48.714;8.738;2022-09-11T15:45:31;25.10;70.30
10986;DHT22;5546;48.714;8.738;2022-09-11T15:47:57;25.10;69.40
10986;DHT22;5546;48.714;8.738;2022-09-11T15:50:26;25.10;68.10
10986;DHT22;5546;48.714;8.738;2022-09-11T15:52:54;25.10;68.80
10986;DHT22;5546;48.714;8.738;2022-09-11T15:55:19;25.30;72.30
10986;DHT22;5546;48.714;8.738;2022-09-11T15:57:45;25.00;74.90
10986;DHT22;5546;48.714;8.738;2022-09-11T16:00:11;24.70;74.10
10986;DHT22;5546;48.714;8.738;2022-09-11T16:02:38;24.70;74.80
10986;DHT22;5546;48.714;8.738;2022-09-11T16:05:05;24.90;74.70
10986;DHT22;5546;48.714;8.738;2022-09-11T16:07:31;24.90;76.00
10986;DHT22;5546;48.714;8.738;2022-09-11T16:09:56;24.90;77.10
10986;DHT22;5546;48.714;8.738;2022-09-11T16:12:23;24.90;77.90
10986;DHT22;5546;48.714;8.738;2022-09-11T16:14:49;24.20;78.70
10986;DHT22;5546;48.714;8.738;2022-09-11T16:17:16;23.80;78.70
10986;DHT22;5546;48.714;8.738;2022-09-11T16:19:45;23.50;79.70
10986;DHT22;5546;48.714;8.738;2022-09-11T16:22:11;23.50;80.30
10986;DHT22;5546;48.714;8.738;2022-09-11T16:24:36;23.40;82.10
10986;DHT22;5546;48.714;8.738;2022-09-11T16:27:04;23.80;81.70
10986;DHT22;5546;48.714;8.738;2022-09-11T16:29:31;23.70;81.60
10986;DHT22;5546;48.714;8.738;2022-09-11T16:31:57;23.00;83.60
10986;DHT22;5546;48.714;8.738;2022-09-11T16:34:22;22.40;86.30
10986;DHT22;5546;48.714;8.738;2022-09-11T16:36:48;22.40;86.90
10986;DHT22;5546;48.714;8.738;2022-09-11T16:39:15;22.50;88.60
10986;DHT22;5546;48.714;8.738;2022-09-11T16:41:42;23.10;86.40
10986;DHT22;5546;48.714;8.738;2022-09-11T16:44:10;22.50;88.90
10986;DHT22;5546;48.714;8.738;2022-09-11T16:46:36;22.20;87.00
10986;DHT22;5546;48.714;8.738;2022-09-11T16:49:02;22.20;86.90
10986;DHT22;5546;48.714;8.738;2022-09-11T16:51:29;22.20;86.70
10986;DHT22;5546;48.714;8.738;2022-09-11T16:53:54;22.50;87.40
10986;DHT22;5546;48.714;8.738;2022-09-11T16:56:22;22.10;89.40
10986;DHT22;5546;48.714;8.738;2022-09-11T16:58:48;21.70;90.50
10986;DHT22;5546;48.714;8.738;2022-09-11T17:01:19;21.90;90.50
10986;DHT22;5546;48.714;8.738;2022-09-11T17:03:48;22.00;90.30
10986;DHT22;5546;48.714;8.738;2022-09-11T17:06:14;22.10;90.20
10986;DHT22;5546;48.714;8.738;2022-09-11T17:08:40;22.00;90.50
10986;DHT22;5546;48.714;8.738;2022-09-11T17:11:12;21.40;91.90
10986;DHT22;5546;48.714;8.738;2022-09-11T17:13:38;21.30;92.10
10986;DHT22;5546;48.714;8.738;2022-09-11T17:16:07;21.30;91.70
10986;DHT22;5546;48.714;8.738;2022-09-11T17:18:33;21.00;92.40
10986;DHT22;5546;48.714;8.738;2022-09-11T17:21:03;21.00;92.40
10986;DHT22;5546;48.714;8.738;2022-09-11T17:23:29;21.20;92.60
10986;DHT22;5546;48.714;8.738;2022-09-11T17:25:55;21.00;92.90
10986;DHT22;5546;48.714;8.738;2022-09-11T17:28:21;21.10;93.10
10986;DHT22;5546;48.714;8.738;2022-09-11T17:30:46;21.10;92.60
10986;DHT22;5546;48.714;8.738;2022-09-11T17:33:14;20.70;93.30
10986;DHT22;5546;48.714;8.738;2022-09-11T17:35:41;20.70;94.20
10986;DHT22;5546;48.714;8.738;2022-09-11T17:38:07;20.60;94.40
10986;DHT22;5546;48.714;8.738;2022-09-11T17:40:34;20.30;94.30
10986;DHT22;5546;48.714;8.738;2022-09-11T17:43:00;20.30;94.60
10986;DHT22;5546;48.714;8.738;2022-09-11T17:45:26;20.10;94.70
10986;DHT22;5546;48.714;8.738;2022-09-11T17:47:53;20.10;94.90
10986;DHT22;5546;48.714;8.738;2022-09-11T17:50:19;20.10;95.00
10986;DHT22;5546;48.714;8.738;2022-09-11T17:52:44;20.10;95.00
10986;DHT22;5546;48.714;8.738;2022-09-11T17:55:10;20.30;95.10
10986;DHT22;5546;48.714;8.738;2022-09-11T17:57:36;20.00;95.40
10986;DHT22;5546;48.714;8.738;2022-09-11T18:00:03;20.30;94.50
10986;DHT22;5546;48.714;8.738;2022-09-11T18:02:29;19.90;95.00
10986;DHT22;5546;48.714;8.738;2022-09-11T18:04:54;19.90;95.10